Time;durP1;ratioP1;P1;durP2;ratioP2;P2;SDS_P1;SDS_P2;PMS_P1;PMS_P2;Temp;Humidity;BMP_temperature;BMP_pressure;BME280_temperature;BME280_humidity;BME280_pressure;Samples;Min_cycle;Max_cycle;Signal;HPM_P1;HPM_P2
2023/07/01 00:00:54;;;;;;;7.05;3.92;;;17.30;99.90;;;;;;4978651;28;20030;-71
2023/07/01 00:03:19;;;;;;;8.27;3.50;;;17.30;99.90;;;;;;4981145;28;20027;-71
2023/07/01 00:05:45;;;;;;;5.57;3.10;;;17.30;99.90;;;;;;4980856;28;20499;-71
2023/07/01 00:08:11;;;;;;;6.85;3.42;;;17.30;99.90;;;;;;4980656;28;20045;-71
2023/07/01 00:10:36;;;;;;;7.38;3.40;;;17.30;99.90;;;;;;4980612;28;20042;-71
2023/07/01 00:13:02;;;;;;;7.90;3.65;;;17.30;99.90;;;;;;4980914;28;20054;-71
2023/07/01 00:15:28;;;;;;;11.00;3.63;;;17.30;99.90;;;;;;4980702;28;20027;-70
2023/07/01 00:17:54;;;;;;;7.53;3.40;;;17.30;99.90;;;;;;4981013;28;20058;-71
2023/07/01 00:20:21;;;;;;;8.23;3.60;;;17.30;99.90;;;;;;4980312;28;20053;-71
2023/07/01 00:22:47;;;;;;;6.97;3.42;;;17.30;99.90;;;;;;4980812;28;20023;-70
2023/07/01 00:25:12;;;;;;;6.18;3.45;;;17.30;99.90;;;;;;4980096;28;20653;-71
2023/07/01 00:27:38;;;;;;;6.15;2.85;;;17.30;99.90;;;;;;4980644;28;20027;-70
2023/07/01 00:30:05;;;;;;;7.22;3.17;;;17.30;99.90;;;;;;4980333;28;20462;-70
2023/07/01 00:32:30;;;;;;;8.23;3.20;;;17.30;99.90;;;;;;5012046;28;20487;-70
2023/07/01 00:34:56;;;;;;;7.53;3.10;;;17.30;99.90;;;;;;4980357;28;20054;-70
2023/07/01 00:37:21;;;;;;;7.85;3.33;;;17.20;99.90;;;;;;4980671;28;20538;-70
2023/07/01 00:39:47;;;;;;;8.73;3.75;;;17.20;99.90;;;;;;4980100;28;20072;-70
2023/07/01 00:42:13;;;;;;;9.07;3.53;;;17.30;99.90;;;;;;4980447;28;20060;-70
2023/07/01 00:44:40;;;;;;;10.68;5.35;;;17.30;99.90;;;;;;4980111;28;20139;-70
2023/07/01 00:47:06;;;;;;;9.07;3.40;;;17.20;99.90;;;;;;5011539;28;20086;-70
2023/07/01 00:49:33;;;;;;;11.07;3.35;;;17.20;99.90;;;;;;4980110;28;20510;-70
2023/07/01 00:51:59;;;;;;;6.18;3.53;;;17.20;99.90;;;;;;4980393;28;20023;-70
2023/07/01 00:54:25;;;;;;;5.50;3.30;;;17.20;99.90;;;;;;5011011;28;20109;-71
2023/07/01 00:56:51;;;;;;;6.10;3.85;;;17.20;99.90;;;;;;5011298;28;20110;-70
2023/07/01 00:59:16;;;;;;;4.68;3.42;;;17.20;99.90;;;;;;5008522;28;20062;-70
2023/07/01 01:01:46;;;;;;;6.80;3.08;;;17.20;99.90;;;;;;4980188;28;20487;-70
2023/07/01 01:04:29;;;;;;;7.72;3.85;;;17.20;99.90;;;;;;4979730;28;20049;-70
2023/07/01 01:07:12;;;;;;;7.75;4.03;;;17.20;99.90;;;;;;4980082;28;20034;-70
2023/07/01 01:09:47;;;;;;;7.30;3.22;;;17.20;99.90;;;;;;4970555;28;20030;-71
2023/07/01 01:12:14;;;;;;;7.68;3.45;;;17.20;99.90;;;;;;4978738;28;20038;-71
2023/07/01 01:14:42;;;;;;;9.55;3.72;;;17.20;99.90;;;;;;4979844;28;20030;-70
2023/07/01 01:17:12;;;;;;;5.65;3.35;;;17.20;99.90;;;;;;4978403;28;20081;-70
2023/07/01 01:19:44;;;;;;;9.05;3.92;;;17.20;99.90;;;;;;4979742;28;20038;-71
2023/07/01 01:22:22;;;;;;;10.30;3.85;;;17.20;99.90;;;;;;4979693;28;20051;-71
2023/07/01 01:24:57;;;;;;;8.07;4.00;;;17.20;99.90;;;;;;4979287;28;20415;-70
2023/07/01 01:27:35;;;;;;;9.57;3.55;;;17.20;99.90;;;;;;5000933;28;20538;-71
2023/07/01 01:30:01;;;;;;;4.32;3.20;;;17.20;99.90;;;;;;4979348;28;20110;-70
2023/07/01 01:32:26;;;;;;;7.72;3.20;;;17.10;99.90;;;;;;4979510;28;20097;-71
2023/07/01 01:34:52;;;;;;;7.10;3.10;;;17.10;99.90;;;;;;4979260;28;21308;-70
2023/07/01 01:37:41;;;;;;;7.13;4.00;;;17.10;99.90;;;;;;4979528;28;20019;-71
2023/07/01 01:40:33;;;;;;;13.07;3.83;;;17.10;99.90;;;;;;4968791;28;20034;-70
2023/07/01 01:43:15;;;;;;;7.65;3.50;;;17.10;99.90;;;;;;4970831;28;20034;-70
2023/07/01 01:45:42;;;;;;;8.50;3.47;;;17.10;99.90;;;;;;4979240;28;20045;-70
2023/07/01 01:48:10;;;;;;;6.72;3.50;;;17.10;99.90;;;;;;4978932;28;20073;-71
2023/07/01 01:50:38;;;;;;;9.95;3.47;;;17.10;99.90;;;;;;4979131;28;20035;-70
2023/07/01 01:53:05;;;;;;;10.40;4.03;;;17.00;99.90;;;;;;4977444;28;20392;-70
2023/07/01 01:55:32;;;;;;;8.02;3.88;;;17.00;99.90;;;;;;4979162;28;20027;-70
2023/07/01 01:57:59;;;;;;;9.32;4.20;;;17.00;99.90;;;;;;4976646;28;20026;-71
2023/07/01 02:00:25;;;;;;;13.90;4.00;;;17.00;99.90;;;;;;4978823;28;20081;-71
2023/07/01 02:02:51;;;;;;;10.23;4.05;;;17.00;99.90;;;;;;4978604;28;20018;-70
2023/07/01 02:05:17;;;;;;;8.38;3.60;;;17.00;99.90;;;;;;5010081;28;20030;-70
2023/07/01 02:07:42;;;;;;;9.27;4.47;;;17.00;99.90;;;;;;4978658;28;20014;-70
2023/07/01 02:10:08;;;;;;;6.63;3.75;;;17.00;99.90;;;;;;4978425;28;20027;-70
2023/07/01 02:12:34;;;;;;;6.05;3.15;;;17.00;99.90;;;;;;4978695;28;20026;-71
2023/07/01 02:15:00;;;;;;;11.10;3.90;;;17.00;99.90;;;;;;4978643;28;20034;-71
2023/07/01 02:17:25;;;;;;;8.23;3.53;;;17.00;99.90;;;;;;4977329;28;20054;-71
2023/07/01 02:19:51;;;;;;;11.73;4.15;;;16.90;99.90;;;;;;4978578;28;20031;-71
2023/07/01 02:22:17;;;;;;;7.50;3.83;;;16.90;99.90;;;;;;4978468;28;20038;-71
2023/07/01 02:24:43;;;;;;;7.35;3.20;;;17.00;99.90;;;;;;4978227;28;20035;-70
2023/07/01 02:27:08;;;;;;;9.88;4.00;;;17.00;99.90;;;;;;4978339;28;20483;-71
2023/07/01 02:29:34;;;;;;;9.02;3.42;;;17.00;99.90;;;;;;4978391;28;20058;-71
2023/07/01 02:32:00;;;;;;;8.10;3.80;;;17.00;99.90;;;;;;4978345;28;20015;-71
2023/07/01 02:34:27;;;;;;;4.50;3.22;;;17.00;99.90;;;;;;4978421;28;20039;-71
2023/07/01 02:36:56;;;;;;;7.93;3.65;;;17.00;99.90;;;;;;4978285;28;20058;-71
2023/07/01 02:39:22;;;;;;;5.93;3.42;;;17.00;99.90;;;;;;4978095;28;20035;-70
2023/07/01 02:41:47;;;;;;;6.10;3.72;;;17.00;99.90;;;;;;4978470;28;20134;-70
2023/07/01 02:44:13;;;;;;;7.90;3.55;;;17.00;99.90;;;;;;4978315;28;20030;-71
2023/07/01 02:46:38;;;;;;;7.05;3.85;;;17.00;99.90;;;;;;4978265;28;20443;-71
2023/07/01 02:49:04;;;;;;;6.35;3.28;;;17.00;99.90;;;;;;5009230;28;20122;-71
2023/07/01 02:51:30;;;;;;;8.95;4.03;;;16.90;99.90;;;;;;4978111;28;20030;-71
2023/07/01 02:53:56;;;;;;;5.22;3.25;;;16.90;99.90;;;;;;4977878;28;20031;-71
2023/07/01 02:56:21;;;;;;;5.15;3.20;;;16.80;99.90;;;;;;4977757;28;20475;-69
2023/07/01 02:58:47;;;;;;;6.63;3.58;;;16.80;99.90;;;;;;4975704;28;20046;-71
2023/07/01 03:01:13;;;;;;;9.20;3.80;;;16.90;99.90;;;;;;4969084;28;20023;-70
2023/07/01 03:03:39;;;;;;;12.38;3.53;;;16.80;99.90;;;;;;4962457;28;20070;-70
2023/07/01 03:06:05;;;;;;;7.03;3.63;;;16.80;99.90;;;;;;4976595;28;20062;-70
2023/07/01 03:08:31;;;;;;;11.70;4.00;;;16.80;99.90;;;;;;4975342;28;20054;-70
2023/07/01 03:10:56;;;;;;;7.68;3.40;;;16.80;99.90;;;;;;4977839;28;20432;-71
2023/07/01 03:13:22;;;;;;;6.95;3.67;;;16.70;99.90;;;;;;4977705;28;20022;-70
2023/07/01 03:15:48;;;;;;;9.43;3.60;;;16.80;99.90;;;;;;4974100;28;20127;-71
2023/07/01 03:18:13;;;;;;;8.20;3.97;;;16.70;99.90;;;;;;4977728;28;20055;-70
2023/07/01 03:20:39;;;;;;;8.57;3.53;;;16.70;99.90;;;;;;4977856;28;20208;-70
2023/07/01 03:23:06;;;;;;;7.20;3.35;;;16.70;99.90;;;;;;4977531;28;20135;-70
2023/07/01 03:25:31;;;;;;;7.78;4.07;;;16.60;99.90;;;;;;4977813;28;20023;-70
2023/07/01 03:27:57;;;;;;;17.67;4.60;;;16.60;99.90;;;;;;4977568;28;20554;-70
2023/07/01 03:30:29;;;;;;;8.48;3.95;;;16.60;99.90;;;;;;4977848;28;20472;-71
2023/07/01 03:32:54;;;;;;;5.75;3.70;;;16.60;99.90;;;;;;4977748;28;20439;-71
2023/07/01 03:35:20;;;;;;;7.55;3.67;;;16.60;99.90;;;;;;4976978;28;20024;-71
2023/07/01 03:37:46;;;;;;;6.85;3.47;;;16.50;99.90;;;;;;4981429;28;20102;-71
2023/07/01 03:40:11;;;;;;;7.97;3.53;;;16.50;99.90;;;;;;4979885;28;20019;-71
2023/07/01 03:42:38;;;;;;;9.73;3.80;;;16.50;99.90;;;;;;4981210;28;20027;-71
2023/07/01 03:45:08;;;;;;;5.25;3.58;;;16.40;99.90;;;;;;4981562;28;20074;-71
2023/07/01 03:47:38;;;;;;;6.18;3.33;;;16.30;99.90;;;;;;4981438;28;20023;-71
2023/07/01 03:50:07;;;;;;;7.07;4.10;;;16.20;99.90;;;;;;4981459;28;20031;-71
2023/07/01 03:52:34;;;;;;;8.70;4.10;;;16.10;99.90;;;;;;4981547;28;20545;-71
2023/07/01 03:55:00;;;;;;;5.82;3.80;;;16.00;99.90;;;;;;4981097;28;20022;-71
2023/07/01 03:57:25;;;;;;;10.02;4.03;;;15.90;99.90;;;;;;4977610;28;20526;-71
2023/07/01 03:59:51;;;;;;;8.18;3.95;;;15.80;99.90;;;;;;4975872;28;20023;-71
2023/07/01 04:02:17;;;;;;;5.88;3.38;;;15.70;99.90;;;;;;4980922;28;20031;-71
2023/07/01 04:04:43;;;;;;;6.28;4.05;;;15.70;99.90;;;;;;4981304;28;20027;-71
2023/07/01 04:07:08;;;;;;;9.02;3.63;;;15.70;99.90;;;;;;5012204;28;20143;-71
2023/07/01 04:09:34;;;;;;;5.80;3.58;;;15.70;99.90;;;;;;4980838;28;20063;-71
2023/07/01 04:12:00;;;;;;;8.57;4.35;;;15.70;99.90;;;;;;4980587;28;20042;-71
2023/07/01 04:14:25;;;;;;;6.90;3.42;;;15.80;99.90;;;;;;5012101;28;20026;-71
2023/07/01 04:16:51;;;;;;;7.40;4.13;;;15.80;99.90;;;;;;4980612;28;20110;-71
2023/07/01 04:19:17;;;;;;;8.73;3.80;;;15.80;99.90;;;;;;4981095;28;20524;-71
2023/07/01 04:21:42;;;;;;;6.80;3.83;;;15.90;99.90;;;;;;4980446;28;20908;-71
2023/07/01 04:24:08;;;;;;;8.50;3.42;;;15.90;99.90;;;;;;5011928;28;20027;-71
2023/07/01 04:26:34;;;;;;;9.90;4.22;;;15.90;99.90;;;;;;4980341;28;20054;-71
2023/07/01 04:29:01;;;;;;;10.35;4.32;;;16.00;99.90;;;;;;4980896;28;20098;-71
2023/07/01 04:31:26;;;;;;;6.10;3.90;;;16.10;99.90;;;;;;4980477;28;20575;-71
2023/07/01 04:33:52;;;;;;;7.72;3.78;;;16.10;99.90;;;;;;4980779;28;20043;-70
2023/07/01 04:36:18;;;;;;;5.32;3.65;;;16.20;99.90;;;;;;4980263;28;20369;-71
2023/07/01 04:38:43;;;;;;;4.80;3.72;;;16.20;99.90;;;;;;4980482;28;20031;-71
2023/07/01 04:41:10;;;;;;;6.35;3.25;;;16.30;99.90;;;;;;4980157;28;20035;-71
2023/07/01 04:43:36;;;;;;;6.45;3.90;;;16.30;99.90;;;;;;4980771;28;20035;-71
2023/07/01 04:46:03;;;;;;;6.43;3.40;;;16.30;99.90;;;;;;4980155;28;20082;-71
2023/07/01 04:48:29;;;;;;;5.93;3.70;;;16.40;99.90;;;;;;5010586;28;20031;-70
2023/07/01 04:50:54;;;;;;;5.63;3.60;;;16.40;99.90;;;;;;4980270;28;20038;-71
2023/07/01 04:53:20;;;;;;;8.65;4.25;;;16.50;99.90;;;;;;4980148;28;20041;-72
2023/07/01 04:55:46;;;;;;;9.88;3.65;;;16.50;99.90;;;;;;4979945;28;20054;-71
2023/07/01 04:58:12;;;;;;;6.75;3.58;;;16.50;99.90;;;;;;4978020;28;20019;-71
2023/07/01 05:00:37;;;;;;;5.85;3.28;;;16.50;99.90;;;;;;4979772;28;20110;-71
2023/07/01 05:03:06;;;;;;;7.50;3.85;;;16.50;99.90;;;;;;4980340;28;20072;-71
2023/07/01 05:05:32;;;;;;;4.63;3.42;;;16.60;99.90;;;;;;4979680;28;20030;-71
2023/07/01 05:07:57;;;;;;;4.80;3.03;;;16.60;99.90;;;;;;5011031;28;20034;-71
2023/07/01 05:10:23;;;;;;;4.63;3.00;;;16.70;99.90;;;;;;4979591;28;20102;-70
2023/07/01 05:12:52;;;;;;;5.63;3.63;;;16.70;99.90;;;;;;4979862;28;20022;-70
2023/07/01 05:15:18;;;;;;;7.32;3.58;;;16.70;99.90;;;;;;4979861;28;20026;-71
2023/07/01 05:17:44;;;;;;;5.53;3.30;;;16.70;99.90;;;;;;4980100;28;20022;-71
2023/07/01 05:20:10;;;;;;;6.53;3.65;;;16.70;99.90;;;;;;5010627;28;20128;-70
2023/07/01 05:22:37;;;;;;;5.60;3.65;;;16.70;99.90;;;;;;4979846;28;20512;-71
2023/07/01 05:25:03;;;;;;;5.38;2.55;;;16.80;99.90;;;;;;4979354;28;20577;-72
2023/07/01 05:27:30;;;;;;;7.85;3.70;;;16.80;99.90;;;;;;4979745;28;20102;-70
2023/07/01 05:29:57;;;;;;;7.18;2.97;;;16.90;99.90;;;;;;4979304;28;20487;-70
2023/07/01 05:32:22;;;;;;;10.30;3.20;;;16.80;99.90;;;;;;4979547;28;20023;-70
2023/07/01 05:34:48;;;;;;;5.18;3.35;;;16.90;99.90;;;;;;4979290;28;20058;-70
2023/07/01 05:37:14;;;;;;;7.40;2.92;;;16.90;99.90;;;;;;4979591;28;20023;-70
2023/07/01 05:39:39;;;;;;;10.40;3.78;;;17.00;99.90;;;;;;4978900;28;20141;-70
2023/07/01 05:42:06;;;;;;;5.50;3.50;;;17.00;99.90;;;;;;4979419;28;20083;-71
2023/07/01 05:44:31;;;;;;;11.07;3.83;;;17.00;99.90;;;;;;5010256;28;20463;-70
2023/07/01 05:46:58;;;;;;;6.32;3.75;;;17.10;99.90;;;;;;4979328;28;20023;-71
2023/07/01 05:49:24;;;;;;;9.65;3.53;;;17.10;99.90;;;;;;4978857;28;20034;-71
2023/07/01 05:51:51;;;;;;;5.85;3.10;;;17.20;99.90;;;;;;5010303;28;20023;-70
2023/07/01 05:54:16;;;;;;;6.10;3.00;;;17.30;99.90;;;;;;4978459;28;20037;-70
2023/07/01 05:56:42;;;;;;;6.22;3.15;;;17.30;99.90;;;;;;4979184;28;20026;-72
2023/07/01 05:59:08;;;;;;;8.77;3.05;;;17.40;99.90;;;;;;4976712;28;20038;-71
2023/07/01 06:01:33;;;;;;;6.93;3.22;;;17.40;99.90;;;;;;4979034;28;20023;-72
2023/07/01 06:03:59;;;;;;;10.32;3.55;;;17.50;99.90;;;;;;4976906;28;20027;-72
2023/07/01 06:06:25;;;;;;;5.80;3.35;;;17.50;99.90;;;;;;4978940;28;20081;-71
2023/07/01 06:08:51;;;;;;;5.60;3.08;;;17.50;99.90;;;;;;5009657;28;20033;-71
2023/07/01 06:11:16;;;;;;;5.88;3.00;;;17.60;99.90;;;;;;4978643;28;20023;-70
2023/07/01 06:13:46;;;;;;;5.32;3.53;;;17.60;99.90;;;;;;4978597;28;20082;-72
2023/07/01 06:16:13;;;;;;;5.32;2.80;;;17.80;99.90;;;;;;4978658;28;20045;-72
2023/07/01 06:18:39;;;;;;;2.55;2.25;;;17.90;99.90;;;;;;4977241;28;20038;-72
2023/07/01 06:21:06;;;;;;;8.25;3.00;;;18.00;99.90;;;;;;4978275;28;20050;-71
2023/07/01 06:23:41;;;;;;;5.50;2.70;;;18.00;99.90;;;;;;5009581;28;20130;-71
2023/07/01 06:26:07;;;;;;;6.45;3.00;;;18.00;99.90;;;;;;4978311;28;20023;-70
2023/07/01 06:28:32;;;;;;;5.40;2.67;;;18.00;99.90;;;;;;5009725;28;20562;-71
2023/07/01 06:30:58;;;;;;;6.35;2.85;;;18.10;99.90;;;;;;4972822;28;20079;-71
2023/07/01 06:33:23;;;;;;;6.38;2.63;;;18.20;99.90;;;;;;4976148;28;20513;-72
2023/07/01 06:35:49;;;;;;;6.65;2.45;;;18.20;99.90;;;;;;4977276;28;20034;-72
2023/07/01 06:38:15;;;;;;;4.65;2.22;;;18.30;99.90;;;;;;4976578;28;20061;-70
2023/07/01 06:40:40;;;;;;;4.15;2.28;;;18.40;99.90;;;;;;4975529;28;20024;-70
2023/07/01 06:43:06;;;;;;;4.68;2.38;;;18.50;99.90;;;;;;4973251;28;20117;-70
2023/07/01 06:45:32;;;;;;;6.07;2.92;;;18.50;99.90;;;;;;4975718;28;20542;-71
2023/07/01 06:47:58;;;;;;;8.63;2.70;;;18.60;99.90;;;;;;4977058;28;20035;-71
2023/07/01 06:50:24;;;;;;;7.03;3.08;;;18.70;99.90;;;;;;4976999;28;20138;-70
2023/07/01 06:52:50;;;;;;;7.13;2.63;;;18.70;99.90;;;;;;4976433;28;20062;-70
2023/07/01 06:55:16;;;;;;;6.28;3.03;;;18.70;99.90;;;;;;4977011;28;20027;-72
2023/07/01 06:57:43;;;;;;;7.65;3.15;;;18.80;99.90;;;;;;4976750;28;20057;-71
2023/07/01 07:00:12;;;;;;;5.35;3.42;;;18.70;99.90;;;;;;4974902;28;20487;-70
2023/07/01 07:02:38;;;;;;;8.77;2.63;;;18.70;99.90;;;;;;4975219;28;20026;-71
2023/07/01 07:05:05;;;;;;;7.45;3.25;;;18.70;99.90;;;;;;4977054;28;20395;-70
2023/07/01 07:07:31;;;;;;;6.88;2.90;;;18.70;99.90;;;;;;4975709;28;20562;-71
2023/07/01 07:09:57;;;;;;;8.48;3.20;;;18.60;99.90;;;;;;4976431;28;20034;-71
2023/07/01 07:12:22;;;;;;;6.97;2.53;;;18.80;99.90;;;;;;4978831;28;20027;-70
2023/07/01 07:14:48;;;;;;;5.72;2.75;;;18.80;99.90;;;;;;4978927;28;20050;-70
2023/07/01 07:17:14;;;;;;;6.53;2.67;;;18.80;99.90;;;;;;4980921;28;20381;-70
2023/07/01 07:19:39;;;;;;;4.50;2.33;;;18.80;99.90;;;;;;4980668;28;20038;-71
2023/07/01 07:22:06;;;;;;;6.30;2.90;;;18.80;99.90;;;;;;4978900;28;20130;-70
2023/07/01 07:24:31;;;;;;;7.05;2.55;;;18.50;99.90;;;;;;4980628;28;20035;-70
2023/07/01 07:27:00;;;;;;;6.25;3.05;;;18.40;99.90;;;;;;4980420;28;20034;-71
2023/07/01 07:29:27;;;;;;;7.15;3.03;;;18.30;99.90;;;;;;4979307;28;20038;-70
2023/07/01 07:31:54;;;;;;;7.10;2.78;;;18.30;99.90;;;;;;4979965;28;20050;-71
2023/07/01 07:34:20;;;;;;;4.28;2.60;;;18.40;99.90;;;;;;4980910;28;20027;-72
2023/07/01 07:36:46;;;;;;;7.65;2.78;;;18.50;99.90;;;;;;4980540;28;20026;-70
2023/07/01 07:39:14;;;;;;;10.38;3.15;;;18.50;99.90;;;;;;4980242;28;20042;-71
2023/07/01 07:41:41;;;;;;;4.97;2.10;;;18.60;99.90;;;;;;4978069;28;20027;-70
2023/07/01 07:44:06;;;;;;;5.43;2.47;;;18.70;99.90;;;;;;4979528;28;20126;-71
2023/07/01 07:46:33;;;;;;;5.30;2.30;;;18.70;99.90;;;;;;4978945;28;20062;-71
2023/07/01 07:48:59;;;;;;;4.25;2.08;;;18.70;99.90;;;;;;4977537;28;20027;-71
2023/07/01 07:51:25;;;;;;;7.22;2.63;;;18.80;99.90;;;;;;4978792;28;20098;-70
2023/07/01 07:53:51;;;;;;;6.53;2.63;;;18.80;99.90;;;;;;4976894;28;20039;-70
2023/07/01 07:56:17;;;;;;;6.43;3.00;;;18.90;99.90;;;;;;4978208;28;20038;-70
2023/07/01 07:58:42;;;;;;;4.10;2.20;;;19.00;99.90;;;;;;4976489;28;20031;-71
2023/07/01 08:01:08;;;;;;;6.03;2.80;;;19.00;99.90;;;;;;4977864;28;20114;-70
2023/07/01 08:03:33;;;;;;;3.88;2.20;;;19.00;99.90;;;;;;4979989;28;20030;-71
2023/07/01 08:05:59;;;;;;;7.65;2.15;;;19.10;99.90;;;;;;4980367;28;20027;-70
2023/07/01 08:08:25;;;;;;;4.75;2.20;;;19.00;99.90;;;;;;4979428;28;20027;-70
2023/07/01 08:10:52;;;;;;;2.92;2.00;;;19.10;99.90;;;;;;4978455;28;20098;-71
2023/07/01 08:13:18;;;;;;;5.50;2.60;;;19.20;99.90;;;;;;4977843;28;20059;-71
2023/07/01 08:15:44;;;;;;;5.07;2.22;;;19.30;99.90;;;;;;4979759;28;20031;-70
2023/07/01 08:18:09;;;;;;;4.35;1.95;;;19.40;99.90;;;;;;4979617;28;20023;-70
2023/07/01 08:20:35;;;;;;;5.43;2.53;;;19.40;99.90;;;;;;4977910;28;20047;-71
2023/07/01 08:23:01;;;;;;;6.85;2.10;;;19.50;99.90;;;;;;4978771;28;20023;-70
2023/07/01 08:25:27;;;;;;;5.68;1.80;;;19.60;99.90;;;;;;4979617;28;20502;-70
2023/07/01 08:27:53;;;;;;;3.25;2.22;;;19.70;99.90;;;;;;4977720;28;20019;-70
2023/07/01 08:30:21;;;;;;;5.32;1.98;;;19.80;99.90;;;;;;4979594;28;20050;-71
2023/07/01 08:32:47;;;;;;;4.93;1.90;;;20.00;99.90;;;;;;4977644;28;20019;-70
2023/07/01 08:35:12;;;;;;;3.50;1.85;;;20.10;99.90;;;;;;4977713;28;20119;-70
2023/07/01 08:37:38;;;;;;;3.97;1.92;;;20.30;99.90;;;;;;4978318;28;20070;-70
2023/07/01 08:40:05;;;;;;;8.15;2.05;;;20.30;99.90;;;;;;4977980;28;20026;-72
2023/07/01 08:42:50;;;;;;;4.03;1.85;;;20.10;99.90;;;;;;4978291;28;20030;-71
2023/07/01 08:45:24;;;;;;;4.15;2.05;;;20.10;99.90;;;;;;4979251;28;20086;-71
2023/07/01 08:47:52;;;;;;;5.72;2.13;;;20.10;99.90;;;;;;4979125;28;20029;-70
2023/07/01 08:50:20;;;;;;;2.92;1.65;;;20.00;99.90;;;;;;4979020;28;20027;-71
2023/07/01 08:52:51;;;;;;;3.88;1.95;;;20.10;99.90;;;;;;4977961;28;20099;-71
2023/07/01 08:55:17;;;;;;;2.83;1.42;;;20.10;99.90;;;;;;4978670;28;20443;-71
2023/07/01 08:57:43;;;;;;;3.92;1.70;;;20.10;99.90;;;;;;4975265;28;20077;-71
2023/07/01 09:00:12;;;;;;;4.43;1.90;;;20.10;99.90;;;;;;4978879;28;20035;-70
2023/07/01 09:02:39;;;;;;;2.70;1.88;;;20.20;99.90;;;;;;4978215;28;20053;-74
2023/07/01 09:05:05;;;;;;;3.97;1.75;;;20.10;99.90;;;;;;4976919;28;20495;-71
2023/07/01 09:07:31;;;;;;;3.92;1.60;;;20.20;99.90;;;;;;4977584;28;20094;-71
2023/07/01 09:09:57;;;;;;;5.55;2.00;;;20.40;99.90;;;;;;4976477;28;20464;-72
2023/07/01 09:12:27;;;;;;;4.82;1.58;;;20.50;99.90;;;;;;4976270;28;20392;-71
2023/07/01 09:15:00;;;;;;;2.47;1.45;;;20.50;99.90;;;;;;4978590;28;20031;-71
2023/07/01 09:17:30;;;;;;;2.75;1.55;;;20.60;99.90;;;;;;4979083;28;20018;-71
2023/07/01 09:20:07;;;;;;;3.17;1.63;;;20.70;99.90;;;;;;4978682;28;20147;-71
2023/07/01 09:22:34;;;;;;;2.95;1.50;;;20.80;99.90;;;;;;4977559;28;20175;-72
2023/07/01 09:25:00;;;;;;;3.40;1.70;;;20.90;99.90;;;;;;4976768;28;20030;-70
2023/07/01 09:27:42;;;;;;;7.22;3.00;;;20.90;99.90;;;;;;4978381;28;20106;-70
2023/07/01 09:30:26;;;;;;;2.72;1.25;;;21.10;99.90;;;;;;4976208;28;20035;-72
2023/07/01 09:33:09;;;;;;;3.25;1.77;;;21.00;99.90;;;;;;4976941;28;20527;-72
2023/07/01 09:35:42;;;;;;;4.57;1.83;;;20.90;99.90;;;;;;4978350;28;20027;-73
2023/07/01 09:38:08;;;;;;;4.93;1.58;;;20.80;99.90;;;;;;4978049;28;20046;-73
2023/07/01 09:40:34;;;;;;;2.30;1.50;;;20.70;99.90;;;;;;4977531;28;20480;-73
2023/07/01 09:42:59;;;;;;;3.67;1.20;;;20.60;99.90;;;;;;4977601;28;20018;-72
2023/07/01 09:45:26;;;;;;;2.67;1.65;;;20.60;99.90;;;;;;4977959;28;20093;-74
2023/07/01 09:47:52;;;;;;;4.90;1.42;;;20.70;99.90;;;;;;4976976;28;20019;-75
2023/07/01 09:50:22;;;;;;;2.35;1.48;;;20.80;99.90;;;;;;4976536;28;20066;-72
2023/07/01 09:52:53;;;;;;;4.00;1.67;;;21.00;99.90;;;;;;4976080;28;20403;-72
2023/07/01 09:55:19;;;;;;;3.05;1.70;;;21.20;99.90;;;;;;4977230;28;20558;-73
2023/07/01 09:57:45;;;;;;;5.47;1.70;;;21.20;99.90;;;;;;4974086;28;20019;-73
2023/07/01 10:00:15;;;;;;;2.88;1.70;;;21.10;99.90;;;;;;4977943;28;20038;-72
2023/07/01 10:02:44;;;;;;;;;;;21.00;99.90;;;;;;4976167;28;20026;-73
2023/07/01 10:05:12;;;;;;;1.92;1.50;;;21.00;99.90;;;;;;4977573;28;19906;-73
2023/07/01 10:07:38;;;;;;;4.60;1.90;;;21.20;99.90;;;;;;4977678;28;20031;-73
2023/07/01 10:10:04;;;;;;;2.78;1.50;;;21.30;99.90;;;;;;4977531;28;20019;-73
2023/07/01 10:12:31;;;;;;;5.90;1.55;;;21.40;99.90;;;;;;4977087;28;20108;-75
2023/07/01 10:14:58;;;;;;;5.60;1.65;;;21.50;99.90;;;;;;4977632;28;20037;-76
2023/07/01 10:17:44;;;;;;;2.25;1.50;;;21.70;99.90;;;;;;4978054;28;20026;-74
2023/07/01 10:20:32;;;;;;;2.00;1.20;;;21.80;99.90;;;;;;4977252;28;20078;-74
2023/07/01 10:23:03;;;;;;;3.28;1.63;;;21.90;99.90;;;;;;5005788;28;20030;-73
2023/07/01 10:25:31;;;;;;;2.45;1.63;;;21.90;99.90;;;;;;4977387;28;20027;-74
2023/07/01 10:28:00;;;;;;;2.95;1.50;;;22.00;99.90;;;;;;4976413;28;20042;-73
2023/07/01 10:30:46;;;;;;;1.67;1.20;;;22.00;99.90;;;;;;4974321;28;20059;-74
2023/07/01 10:33:30;;;;;;;5.82;1.70;;;22.00;99.90;;;;;;4974073;28;20059;-73
2023/07/01 10:36:07;;;;;;;2.22;1.25;;;22.00;99.90;;;;;;4976280;28;20452;-72
2023/07/01 10:38:34;;;;;;;2.22;1.42;;;22.00;99.90;;;;;;4974929;28;20030;-73
2023/07/01 10:41:00;;;;;;;2.55;1.40;;;22.00;99.90;;;;;;4976313;28;20518;-71
2023/07/01 10:43:33;;;;;;;2.60;1.45;;;21.90;99.90;;;;;;4977504;28;20027;-71
2023/07/01 10:46:13;;;;;;;4.28;1.92;;;21.80;99.90;;;;;;5005260;28;20394;-71
2023/07/01 10:48:41;;;;;;;2.78;1.73;;;21.50;99.90;;;;;;4977271;28;20127;-73
2023/07/01 10:51:09;;;;;;;4.15;2.35;;;21.40;99.90;;;;;;4976180;28;20018;-72
2023/07/01 10:53:57;;;;;;;5.00;2.08;;;21.40;99.90;;;;;;4977016;28;20078;-72
2023/07/01 10:56:23;;;;;;;2.83;1.67;;;21.40;99.90;;;;;;4977292;28;20026;-72
2023/07/01 10:59:17;;;;;;;6.47;2.13;;;21.50;99.90;;;;;;5007798;28;20035;-72
2023/07/01 11:01:44;;;;;;;4.68;2.03;;;21.70;99.90;;;;;;4974569;28;20034;-72
2023/07/01 11:04:10;;;;;;;2.85;1.67;;;21.80;99.90;;;;;;4976872;28;20819;-74
2023/07/01 11:06:52;;;;;;;3.05;1.90;;;21.80;99.90;;;;;;4977052;28;20031;-72
2023/07/01 11:09:28;;;;;;;4.05;2.17;;;21.90;99.90;;;;;;4976602;28;20026;-72
2023/07/01 11:11:57;;;;;;;4.13;1.75;;;22.10;99.90;;;;;;5007173;28;20050;-72
2023/07/01 11:14:38;;;;;;;4.72;2.00;;;22.30;99.90;;;;;;4977014;28;20034;-72
2023/07/01 11:17:05;;;;;;;4.00;1.98;;;22.60;99.90;;;;;;5007500;28;20110;-71
2023/07/01 11:19:31;;;;;;;2.22;1.40;;;22.80;99.90;;;;;;4977272;28;20035;-72
2023/07/01 11:21:57;;;;;;;2.85;1.63;;;22.90;99.90;;;;;;4975843;28;20514;-72
2023/07/01 11:24:25;;;;;;;6.45;2.05;;;22.70;99.90;;;;;;4977032;28;20045;-73
2023/07/01 11:26:51;;;;;;;3.70;1.58;;;22.70;99.90;;;;;;4976459;28;20025;-73
2023/07/01 11:29:18;;;;;;;3.92;1.85;;;22.70;99.90;;;;;;4976779;28;20035;-73
2023/07/01 11:31:45;;;;;;;3.25;1.50;;;22.60;99.90;;;;;;4974534;28;20074;-71
2023/07/01 11:34:11;;;;;;;4.53;1.50;;;22.70;99.90;;;;;;4976891;28;20488;-73
2023/07/01 11:36:44;;;;;;;3.72;1.80;;;22.70;99.90;;;;;;4976437;28;20452;-71
2023/07/01 11:39:15;;;;;;;3.13;1.45;;;22.60;99.90;;;;;;4975160;28;20352;-73
2023/07/01 11:41:43;;;;;;;4.53;2.30;;;22.70;99.90;;;;;;4975881;28;20018;-71
2023/07/01 11:44:11;;;;;;;6.85;2.38;;;22.80;99.90;;;;;;4975164;28;20037;-72
2023/07/01 11:46:38;;;;;;;2.83;1.52;;;23.10;99.90;;;;;;4972009;28;20551;-73
2023/07/01 11:49:24;;;;;;;5.60;1.48;;;23.20;99.90;;;;;;4973724;28;20035;-73
2023/07/01 11:51:58;;;;;;;4.65;1.42;;;23.20;99.90;;;;;;4974282;28;20019;-71
2023/07/01 11:54:48;;;;;;;1.88;1.33;;;23.20;99.90;;;;;;4974816;28;20054;-71
2023/07/01 11:57:21;;;;;;;5.13;1.60;;;23.20;99.90;;;;;;5006374;28;20015;-73
2023/07/01 11:59:47;;;;;;;4.60;1.63;;;23.10;99.90;;;;;;4974571;28;20059;-73
2023/07/01 12:02:14;;;;;;;3.60;1.70;;;23.00;99.90;;;;;;4976297;28;20022;-72
2023/07/01 12:04:40;;;;;;;2.90;1.50;;;22.80;99.90;;;;;;4978732;28;20494;-73
2023/07/01 12:07:15;;;;;;;3.92;1.80;;;22.70;99.90;;;;;;4976873;28;20030;-73
2023/07/01 12:09:42;;;;;;;7.90;1.83;;;22.90;99.90;;;;;;4978231;28;20518;-72
2023/07/01 12:12:16;;;;;;;4.68;1.52;;;22.90;99.90;;;;;;4977715;28;20030;-72
2023/07/01 12:14:42;;;;;;;4.53;1.58;;;23.00;99.90;;;;;;4974299;28;20449;-72
2023/07/01 12:17:23;;;;;;;4.32;1.60;;;22.80;99.90;;;;;;4979881;28;20486;-72
2023/07/01 12:19:48;;;;;;;4.10;1.40;;;22.80;99.90;;;;;;4979561;28;20035;-72
2023/07/01 12:22:14;;;;;;;2.97;1.40;;;23.00;99.90;;;;;;4978657;28;20036;-72
2023/07/01 12:24:40;;;;;;;2.72;1.40;;;23.10;99.90;;;;;;4977943;28;20029;-72
2023/07/01 12:27:05;;;;;;;3.78;1.65;;;23.00;99.90;;;;;;4976625;28;20061;-72
2023/07/01 12:29:31;;;;;;;3.22;1.40;;;23.10;99.90;;;;;;4979464;28;20550;-73
2023/07/01 12:31:57;;;;;;;3.38;1.92;;;23.20;99.90;;;;;;4976547;28;20030;-72
2023/07/01 12:34:23;;;;;;;2.22;1.27;;;23.20;99.90;;;;;;4979362;28;20030;-72
2023/07/01 12:36:49;;;;;;;1.38;1.00;;;23.20;99.90;;;;;;4979392;28;20035;-71
2023/07/01 12:39:17;;;;;;;2.42;1.20;;;23.30;99.90;;;;;;4979229;28;20105;-70
2023/07/01 12:41:47;;;;;;;1.73;1.13;;;23.50;99.90;;;;;;4978266;28;20026;-71
2023/07/01 12:44:13;;;;;;;2.45;1.30;;;23.60;99.90;;;;;;4976109;28;20034;-70
2023/07/01 12:46:43;;;;;;;1.90;1.10;;;23.50;99.90;;;;;;4975454;28;20038;-71
2023/07/01 12:49:10;;;;;;;2.95;1.17;;;23.30;99.90;;;;;;4975648;28;20502;-73